sensor_id;sensor_type;location;lat;lon;timestamp;temperature;humidity
15452;DHT22;7827;53.594;9.938;2023-09-12T00:02:38;21.90;9.60
15452;DHT22;7827;53.594;9.938;2023-09-12T00:05:07;21.90;21.90
15452;DHT22;7827;53.594;9.938;2023-09-12T00:07:36;21.90;24.10
15452;DHT22;7827;53.594;9.938;2023-09-12T00:10:05;21.70;52.60
15452;DHT22;7827;53.594;9.938;2023-09-12T00:12:33;21.60;99.90
15452;DHT22;7827;53.594;9.938;2023-09-12T00:15:04;21.60;87.70
15452;DHT22;7827;53.594;9.938;2023-09-12T00:17:33;21.50;98.20
15452;DHT22;7827;53.594;9.938;2023-09-12T00:20:01;21.60;88.70
15452;DHT22;7827;53.594;9.938;2023-09-12T00:22:31;21.70;75.80
15452;DHT22;7827;53.594;9.938;2023-09-12T00:24:59;21.70;49.10
15452;DHT22;7827;53.594;9.938;2023-09-12T00:27:28;21.70;33.60
15452;DHT22;7827;53.594;9.938;2023-09-12T00:29:56;21.80;31.50
15452;DHT22;7827;53.594;9.938;2023-09-12T00:32:26;21.80;1.00
15452;DHT22;7827;53.594;9.938;2023-09-12T00:34:54;21.80;21.30
15452;DHT22;7827;53.594;9.938;2023-09-12T00:37:24;21.70;1.00
15452;DHT22;7827;53.594;9.938;2023-09-12T00:39:52;21.50;41.30
15452;DHT22;7827;53.594;9.938;2023-09-12T00:42:20;21.50;46.10
15452;DHT22;7827;53.594;9.938;2023-09-12T00:44:49;21.40;67.40
15452;DHT22;7827;53.594;9.938;2023-09-12T00:47:18;21.50;74.40
15452;DHT22;7827;53.594;9.938;2023-09-12T00:49:50;21.40;43.30
15452;DHT22;7827;53.594;9.938;2023-09-12T00:52:23;21.40;80.40
15452;DHT22;7827;53.594;9.938;2023-09-12T00:54:53;21.40;58.50
15452;DHT22;7827;53.594;9.938;2023-09-12T00:57:23;21.40;59.80
15452;DHT22;7827;53.594;9.938;2023-09-12T00:59:52;21.30;74.30
15452;DHT22;7827;53.594;9.938;2023-09-12T01:02:21;21.30;81.40
15452;DHT22;7827;53.594;9.938;2023-09-12T02:02:13;20.90;99.90
15452;DHT22;7827;53.594;9.938;2023-09-12T02:04:41;21.10;99.90
15452;DHT22;7827;53.594;9.938;2023-09-12T02:07:12;21.10;99.90
15452;DHT22;7827;53.594;9.938;2023-09-12T02:09:40;21.10;99.90
15452;DHT22;7827;53.594;9.938;2023-09-12T02:12:09;21.30;99.90
15452;DHT22;7827;53.594;9.938;2023-09-12T02:14:37;21.30;94.50
15452;DHT22;7827;53.594;9.938;2023-09-12T02:17:05;21.30;99.90
15452;DHT22;7827;53.594;9.938;2023-09-12T02:19:35;21.40;98.10
15452;DHT22;7827;53.594;9.938;2023-09-12T02:22:03;21.30;72.50
15452;DHT22;7827;53.594;9.938;2023-09-12T02:24:34;21.10;99.90
15452;DHT22;7827;53.594;9.938;2023-09-12T02:27:03;21.00;99.90
15452;DHT22;7827;53.594;9.938;2023-09-12T02:29:32;21.10;99.90
15452;DHT22;7827;53.594;9.938;2023-09-12T02:32:01;21.10;99.90
15452;DHT22;7827;53.594;9.938;2023-09-12T02:34:29;21.00;99.90
15452;DHT22;7827;53.594;9.938;2023-09-12T02:36:59;21.00;99.90
15452;DHT22;7827;53.594;9.938;2023-09-12T02:39:27;20.90;99.90
15452;DHT22;7827;53.594;9.938;2023-09-12T02:41:56;20.90;99.90
15452;DHT22;7827;53.594;9.938;2023-09-12T02:44:24;20.90;99.90
15452;DHT22;7827;53.594;9.938;2023-09-12T02:46:52;21.10;99.90
15452;DHT22;7827;53.594;9.938;2023-09-12T02:49:21;21.10;99.90
15452;DHT22;7827;53.594;9.938;2023-09-12T02:51:49;21.00;99.90
15452;DHT22;7827;53.594;9.938;2023-09-12T02:54:19;21.10;99.90
15452;DHT22;7827;53.594;9.938;2023-09-12T02:56:47;21.10;99.90
15452;DHT22;7827;53.594;9.938;2023-09-12T02:59:15;21.10;99.90
15452;DHT22;7827;53.594;9.938;2023-09-12T03:01:44;21.10;99.90
15452;DHT22;7827;53.594;9.938;2023-09-12T03:04:13;21.10;99.90
15452;DHT22;7827;53.594;9.938;2023-09-12T03:06:41;21.10;99.90
15452;DHT22;7827;53.594;9.938;2023-09-12T03:09:10;21.00;99.90
15452;DHT22;7827;53.594;9.938;2023-09-12T03:11:40;21.00;99.90
15452;DHT22;7827;53.594;9.938;2023-09-12T03:14:09;21.10;99.90
15452;DHT22;7827;53.594;9.938;2023-09-12T03:16:37;21.10;99.90
15452;DHT22;7827;53.594;9.938;2023-09-12T03:19:06;21.10;99.90
15452;DHT22;7827;53.594;9.938;2023-09-12T03:21:35;21.10;99.90
15452;DHT22;7827;53.594;9.938;2023-09-12T03:24:04;21.00;99.90
15452;DHT22;7827;53.594;9.938;2023-09-12T03:26:36;21.00;99.90
15452;DHT22;7827;53.594;9.938;2023-09-12T03:29:06;21.00;99.90
15452;DHT22;7827;53.594;9.938;2023-09-12T03:31:35;21.00;99.90
15452;DHT22;7827;53.594;9.938;2023-09-12T03:34:03;20.90;99.90
15452;DHT22;7827;53.594;9.938;2023-09-12T03:36:32;20.90;99.90
15452;DHT22;7827;53.594;9.938;2023-09-12T03:39:00;20.90;99.90
15452;DHT22;7827;53.594;9.938;2023-09-12T03:41:30;20.90;99.90
15452;DHT22;7827;53.594;9.938;2023-09-12T03:43:58;20.90;99.90
15452;DHT22;7827;53.594;9.938;2023-09-12T03:46:28;21.00;99.90
15452;DHT22;7827;53.594;9.938;2023-09-12T03:48:57;20.90;99.90
15452;DHT22;7827;53.594;9.938;2023-09-12T03:51:25;21.00;99.90
15452;DHT22;7827;53.594;9.938;2023-09-12T03:53:54;21.00;99.90
15452;DHT22;7827;53.594;9.938;2023-09-12T03:56:22;21.00;99.90
15452;DHT22;7827;53.594;9.938;2023-09-12T03:58:50;21.00;99.90
15452;DHT22;7827;53.594;9.938;2023-09-12T04:01:21;21.00;99.90
15452;DHT22;7827;53.594;9.938;2023-09-12T04:03:50;20.90;99.90
15452;DHT22;7827;53.594;9.938;2023-09-12T04:06:19;21.00;99.90
15452;DHT22;7827;53.594;9.938;2023-09-12T04:08:48;20.90;99.90
15452;DHT22;7827;53.594;9.938;2023-09-12T04:11:16;20.90;99.90
15452;DHT22;7827;53.594;9.938;2023-09-12T04:13:54;20.80;99.90
15452;DHT22;7827;53.594;9.938;2023-09-12T04:16:23;20.90;99.90
15452;DHT22;7827;53.594;9.938;2023-09-12T04:18:53;20.90;99.90
15452;DHT22;7827;53.594;9.938;2023-09-12T04:21:21;20.90;99.90
15452;DHT22;7827;53.594;9.938;2023-09-12T04:23:49;21.00;99.90
15452;DHT22;7827;53.594;9.938;2023-09-12T04:26:18;21.00;99.90
15452;DHT22;7827;53.594;9.938;2023-09-12T04:28:46;20.90;99.90
15452;DHT22;7827;53.594;9.938;2023-09-12T04:31:15;20.90;99.90
15452;DHT22;7827;53.594;9.938;2023-09-12T04:33:43;20.90;99.90
15452;DHT22;7827;53.594;9.938;2023-09-12T04:36:13;20.90;99.90
15452;DHT22;7827;53.594;9.938;2023-09-12T04:38:42;20.80;99.90
15452;DHT22;7827;53.594;9.938;2023-09-12T04:41:11;20.70;99.90
15452;DHT22;7827;53.594;9.938;2023-09-12T04:43:43;20.80;99.90
15452;DHT22;7827;53.594;9.938;2023-09-12T04:46:12;20.70;99.90
15452;DHT22;7827;53.594;9.938;2023-09-12T04:48:41;20.70;99.90
15452;DHT22;7827;53.594;9.938;2023-09-12T04:51:12;20.80;99.90
15452;DHT22;7827;53.594;9.938;2023-09-12T04:53:40;20.80;99.90
15452;DHT22;7827;53.594;9.938;2023-09-12T04:56:09;20.70;99.90
15452;DHT22;7827;53.594;9.938;2023-09-12T04:58:38;20.80;99.90
15452;DHT22;7827;53.594;9.938;2023-09-12T05:01:06;20.70;99.90
15452;DHT22;7827;53.594;9.938;2023-09-12T05:03:36;20.60;99.90
15452;DHT22;7827;53.594;9.938;2023-09-12T05:06:04;20.70;99.90
15452;DHT22;7827;53.594;9.938;2023-09-12T05:08:34;20.60;99.90
15452;DHT22;7827;53.594;9.938;2023-09-12T05:11:02;20.60;99.90
15452;DHT22;7827;53.594;9.938;2023-09-12T05:13:31;20.60;99.90
15452;DHT22;7827;53.594;9.938;2023-09-12T05:16:00;20.60;99.90
15452;DHT22;7827;53.594;9.938;2023-09-12T05:18:29;20.60;99.90
15452;DHT22;7827;53.594;9.938;2023-09-12T05:20:57;20.60;99.90
15452;DHT22;7827;53.594;9.938;2023-09-12T05:23:26;20.60;99.90
15452;DHT22;7827;53.594;9.938;2023-09-12T05:25:56;20.60;99.90
15452;DHT22;7827;53.594;9.938;2023-09-12T05:28:24;20.60;99.90
15452;DHT22;7827;53.594;9.938;2023-09-12T05:30:53;20.60;99.90
15452;DHT22;7827;53.594;9.938;2023-09-12T05:33:21;20.60;99.90
15452;DHT22;7827;53.594;9.938;2023-09-12T05:35:50;20.60;99.90
15452;DHT22;7827;53.594;9.938;2023-09-12T05:38:18;20.50;99.90
15452;DHT22;7827;53.594;9.938;2023-09-12T05:40:47;20.60;99.90
15452;DHT22;7827;53.594;9.938;2023-09-12T05:43:18;20.70;99.90
15452;DHT22;7827;53.594;9.938;2023-09-12T05:45:47;20.70;99.90
15452;DHT22;7827;53.594;9.938;2023-09-12T05:48:15;20.70;99.90
15452;DHT22;7827;53.594;9.938;2023-09-12T05:50:44;20.70;99.90
15452;DHT22;7827;53.594;9.938;2023-09-12T05:53:12;20.70;99.90
15452;DHT22;7827;53.594;9.938;2023-09-12T05:55:41;20.70;99.90
15452;DHT22;7827;53.594;9.938;2023-09-12T05:58:10;20.70;99.90
15452;DHT22;7827;53.594;9.938;2023-09-12T06:00:40;20.70;99.90
15452;DHT22;7827;53.594;9.938;2023-09-12T06:03:08;20.70;99.90
15452;DHT22;7827;53.594;9.938;2023-09-12T06:05:37;20.70;99.90
15452;DHT22;7827;53.594;9.938;2023-09-12T06:08:05;20.70;99.90
15452;DHT22;7827;53.594;9.938;2023-09-12T06:10:34;20.70;99.90
15452;DHT22;7827;53.594;9.938;2023-09-12T06:13:02;20.70;99.90
15452;DHT22;7827;53.594;9.938;2023-09-12T06:15:31;20.70;99.90
15452;DHT22;7827;53.594;9.938;2023-09-12T06:18:01;20.80;99.90
15452;DHT22;7827;53.594;9.938;2023-09-12T06:20:29;20.80;99.90
15452;DHT22;7827;53.594;9.938;2023-09-12T06:22:58;20.70;99.90
15452;DHT22;7827;53.594;9.938;2023-09-12T06:25:26;20.80;99.90
15452;DHT22;7827;53.594;9.938;2023-09-12T06:27:56;20.80;99.90
15452;DHT22;7827;53.594;9.938;2023-09-12T06:30:26;20.80;99.90
15452;DHT22;7827;53.594;9.938;2023-09-12T06:32:54;20.80;99.90
15452;DHT22;7827;53.594;9.938;2023-09-12T06:35:24;20.80;99.90
15452;DHT22;7827;53.594;9.938;2023-09-12T06:37:54;20.90;99.90
15452;DHT22;7827;53.594;9.938;2023-09-12T06:40:23;20.90;99.90
15452;DHT22;7827;53.594;9.938;2023-09-12T06:42:51;20.90;99.90
15452;DHT22;7827;53.594;9.938;2023-09-12T06:45:20;20.90;99.90
15452;DHT22;7827;53.594;9.938;2023-09-12T06:47:48;20.90;99.90
15452;DHT22;7827;53.594;9.938;2023-09-12T06:50:16;20.90;99.90
15452;DHT22;7827;53.594;9.938;2023-09-12T06:52:46;20.80;99.90
15452;DHT22;7827;53.594;9.938;2023-09-12T06:55:15;20.80;99.90
15452;DHT22;7827;53.594;9.938;2023-09-12T06:57:43;20.80;99.90
15452;DHT22;7827;53.594;9.938;2023-09-12T07:00:13;20.80;99.90
15452;DHT22;7827;53.594;9.938;2023-09-12T07:02:42;20.90;99.90
15452;DHT22;7827;53.594;9.938;2023-09-12T07:05:11;20.90;99.90
15452;DHT22;7827;53.594;9.938;2023-09-12T07:07:39;20.90;99.90
15452;DHT22;7827;53.594;9.938;2023-09-12T07:10:09;21.00;99.90
15452;DHT22;7827;53.594;9.938;2023-09-12T07:12:51;21.00;99.90
15452;DHT22;7827;53.594;9.938;2023-09-12T07:15:20;21.10;99.90
15452;DHT22;7827;53.594;9.938;2023-09-12T07:17:49;21.10;99.90
15452;DHT22;7827;53.594;9.938;2023-09-12T07:20:18;21.10;99.90
15452;DHT22;7827;53.594;9.938;2023-09-12T07:22:47;21.10;99.90
15452;DHT22;7827;53.594;9.938;2023-09-12T07:25:16;21.10;99.90
15452;DHT22;7827;53.594;9.938;2023-09-12T07:27:46;21.10;99.90
15452;DHT22;7827;53.594;9.938;2023-09-12T07:30:14;21.10;99.90
15452;DHT22;7827;53.594;9.938;2023-09-12T07:32:43;21.10;99.90
15452;DHT22;7827;53.594;9.938;2023-09-12T07:35:11;21.10;99.90
15452;DHT22;7827;53.594;9.938;2023-09-12T07:37:39;21.00;99.90
15452;DHT22;7827;53.594;9.938;2023-09-12T07:40:09;21.20;99.90
15452;DHT22;7827;53.594;9.938;2023-09-12T07:42:40;21.10;99.90
15452;DHT22;7827;53.594;9.938;2023-09-12T07:45:09;21.10;99.90
15452;DHT22;7827;53.594;9.938;2023-09-12T07:47:39;21.10;99.90
15452;DHT22;7827;53.594;9.938;2023-09-12T07:50:08;21.10;99.90
15452;DHT22;7827;53.594;9.938;2023-09-12T07:52:37;21.10;99.90
15452;DHT22;7827;53.594;9.938;2023-09-12T07:55:06;21.10;99.90
15452;DHT22;7827;53.594;9.938;2023-09-12T07:57:35;21.20;99.90
15452;DHT22;7827;53.594;9.938;2023-09-12T08:00:06;21.20;99.90
15452;DHT22;7827;53.594;9.938;2023-09-12T08:02:39;21.20;99.90
15452;DHT22;7827;53.594;9.938;2023-09-12T08:05:08;21.20;99.90
15452;DHT22;7827;53.594;9.938;2023-09-12T08:07:37;21.30;99.90
15452;DHT22;7827;53.594;9.938;2023-09-12T08:10:06;21.40;99.90
15452;DHT22;7827;53.594;9.938;2023-09-12T08:12:36;21.40;99.90
15452;DHT22;7827;53.594;9.938;2023-09-12T08:15:08;21.40;99.90
15452;DHT22;7827;53.594;9.938;2023-09-12T08:17:38;21.50;99.90
15452;DHT22;7827;53.594;9.938;2023-09-12T08:20:08;21.50;99.90
15452;DHT22;7827;53.594;9.938;2023-09-12T08:22:37;21.60;99.90
15452;DHT22;7827;53.594;9.938;2023-09-12T08:25:06;21.60;99.90
15452;DHT22;7827;53.594;9.938;2023-09-12T08:27:35;21.60;99.90
15452;DHT22;7827;53.594;9.938;2023-09-12T08:30:04;21.70;99.90
15452;DHT22;7827;53.594;9.938;2023-09-12T08:32:34;21.70;99.90
15452;DHT22;7827;53.594;9.938;2023-09-12T08:35:03;21.80;99.90
15452;DHT22;7827;53.594;9.938;2023-09-12T08:37:32;21.80;99.90
15452;DHT22;7827;53.594;9.938;2023-09-12T08:40:01;21.90;99.90
15452;DHT22;7827;53.594;9.938;2023-09-12T08:42:39;22.00;99.90
15452;DHT22;7827;53.594;9.938;2023-09-12T08:45:12;22.10;99.90
15452;DHT22;7827;53.594;9.938;2023-09-12T08:47:46;22.30;99.90
15452;DHT22;7827;53.594;9.938;2023-09-12T08:50:23;22.50;85.80
15452;DHT22;7827;53.594;9.938;2023-09-12T08:52:52;22.60;47.50
15452;DHT22;7827;53.594;9.938;2023-09-12T08:55:33;22.80;50.80
15452;DHT22;7827;53.594;9.938;2023-09-12T08:58:04;22.90;21.70
15452;DHT22;7827;53.594;9.938;2023-09-12T09:00:34;22.90;17.70
15452;DHT22;7827;53.594;9.938;2023-09-12T09:03:06;23.00;25.20
15452;DHT22;7827;53.594;9.938;2023-09-12T09:05:35;23.10;10.40
15452;DHT22;7827;53.594;9.938;2023-09-12T09:08:06;23.00;21.90
15452;DHT22;7827;53.594;9.938;2023-09-12T09:10:35;23.00;3.00
15452;DHT22;7827;53.594;9.938;2023-09-12T09:13:17;23.00;29.80
15452;DHT22;7827;53.594;9.938;2023-09-12T09:15:45;22.90;11.60
15452;DHT22;7827;53.594;9.938;2023-09-12T09:18:15;22.90;5.10
15452;DHT22;7827;53.594;9.938;2023-09-12T09:20:44;22.90;18.20
15452;DHT22;7827;53.594;9.938;2023-09-12T09:23:16;23.00;25.40
15452;DHT22;7827;53.594;9.938;2023-09-12T09:25:52;23.10;8.30
15452;DHT22;7827;53.594;9.938;2023-09-12T09:28:21;23.20;1.00
15452;DHT22;7827;53.594;9.938;2023-09-12T09:30:51;23.10;1.00
15452;DHT22;7827;53.594;9.938;2023-09-12T09:33:23;23.10;1.00
15452;DHT22;7827;53.594;9.938;2023-09-12T09:36:02;23.00;19.70
15452;DHT22;7827;53.594;9.938;2023-09-12T09:38:32;22.90;10.80
15452;DHT22;7827;53.594;9.938;2023-09-12T09:41:04;23.00;12.90
15452;DHT22;7827;53.594;9.938;2023-09-12T09:43:34;22.90;1.30
15452;DHT22;7827;53.594;9.938;2023-09-12T09:46:03;22.90;5.50
15452;DHT22;7827;53.594;9.938;2023-09-12T09:48:33;22.90;17.60
15452;DHT22;7827;53.594;9.938;2023-09-12T09:51:02;22.90;25.50
15452;DHT22;7827;53.594;9.938;2023-09-12T09:53:31;23.00;3.90
15452;DHT22;7827;53.594;9.938;2023-09-12T09:56:11;22.90;14.50
15452;DHT22;7827;53.594;9.938;2023-09-12T09:58:46;23.00;7.60
15452;DHT22;7827;53.594;9.938;2023-09-12T10:01:18;23.00;1.00
15452;DHT22;7827;53.594;9.938;2023-09-12T10:03:51;23.00;1.00
15452;DHT22;7827;53.594;9.938;2023-09-12T10:06:20;23.00;1.00
15452;DHT22;7827;53.594;9.938;2023-09-12T10:08:50;23.00;1.00
15452;DHT22;7827;53.594;9.938;2023-09-12T10:11:22;22.90;1.00
15452;DHT22;7827;53.594;9.938;2023-09-12T10:13:54;22.80;7.90
15452;DHT22;7827;53.594;9.938;2023-09-12T10:16:24;22.90;6.80
15452;DHT22;7827;53.594;9.938;2023-09-12T10:18:59;22.90;1.80
15452;DHT22;7827;53.594;9.938;2023-09-12T10:21:41;22.90;4.80
15452;DHT22;7827;53.594;9.938;2023-09-12T10:24:15;22.90;12.30
15452;DHT22;7827;53.594;9.938;2023-09-12T10:26:44;22.80;1.00
15452;DHT22;7827;53.594;9.938;2023-09-12T10:29:14;22.80;1.00
15452;DHT22;7827;53.594;9.938;2023-09-12T10:31:43;22.70;1.00
15452;DHT22;7827;53.594;9.938;2023-09-12T10:34:14;22.60;1.00
15452;DHT22;7827;53.594;9.938;2023-09-12T10:36:45;22.50;20.60
15452;DHT22;7827;53.594;9.938;2023-09-12T10:39:15;22.40;30.20
15452;DHT22;7827;53.594;9.938;2023-09-12T10:41:43;22.40;36.10
15452;DHT22;7827;53.594;9.938;2023-09-12T10:44:15;22.40;46.20
15452;DHT22;7827;53.594;9.938;2023-09-12T10:46:45;22.40;45.80
15452;DHT22;7827;53.594;9.938;2023-09-12T10:49:17;22.50;58.50
15452;DHT22;7827;53.594;9.938;2023-09-12T10:51:47;22.60;46.80
15452;DHT22;7827;53.594;9.938;2023-09-12T10:54:22;22.60;50.80
15452;DHT22;7827;53.594;9.938;2023-09-12T10:57:02;22.60;39.50
15452;DHT22;7827;53.594;9.938;2023-09-12T10:59:31;22.70;40.90
15452;DHT22;7827;53.594;9.938;2023-09-12T11:02:27;22.60;50.40
15452;DHT22;7827;53.594;9.938;2023-09-12T11:04:59;22.60;68.00
15452;DHT22;7827;53.594;9.938;2023-09-12T11:07:44;22.60;68.30
15452;DHT22;7827;53.594;9.938;2023-09-12T11:10:17;22.50;26.80
15452;DHT22;7827;53.594;9.938;2023-09-12T11:12:47;22.40;43.70
15452;DHT22;7827;53.594;9.938;2023-09-12T11:15:17;22.30;59.40
15452;DHT22;7827;53.594;9.938;2023-09-12T11:17:47;22.40;76.10
15452;DHT22;7827;53.594;9.938;2023-09-12T11:20:18;22.50;74.10
15452;DHT22;7827;53.594;9.938;2023-09-12T11:22:50;22.60;54.60
15452;DHT22;7827;53.594;9.938;2023-09-12T11:25:20;22.50;41.60
15452;DHT22;7827;53.594;9.938;2023-09-12T11:28:04;22.50;53.40
15452;DHT22;7827;53.594;9.938;2023-09-12T11:30:33;22.60;62.80
15452;DHT22;7827;53.594;9.938;2023-09-12T11:33:04;22.50;36.30
15452;DHT22;7827;53.594;9.938;2023-09-12T11:35:38;22.50;43.80
15452;DHT22;7827;53.594;9.938;2023-09-12T11:38:10;22.50;47.50
15452;DHT22;7827;53.594;9.938;2023-09-12T11:40:43;22.50;47.80
15452;DHT22;7827;53.594;9.938;2023-09-12T11:43:22;22.40;58.50
15452;DHT22;7827;53.594;9.938;2023-09-12T11:45:52;22.40;73.10
15452;DHT22;7827;53.594;9.938;2023-09-12T11:48:22;22.30;89.80
15452;DHT22;7827;53.594;9.938;2023-09-12T11:50:53;22.30;89.40
15452;DHT22;7827;53.594;9.938;2023-09-12T11:53:23;22.30;91.80
15452;DHT22;7827;53.594;9.938;2023-09-12T11:55:55;22.10;95.60
15452;DHT22;7827;53.594;9.938;2023-09-12T11:58:26;22.10;99.80
15452;DHT22;7827;53.594;9.938;2023-09-12T12:00:56;22.00;99.90
15452;DHT22;7827;53.594;9.938;2023-09-12T12:03:27;22.00;99.90
15452;DHT22;7827;53.594;9.938;2023-09-12T12:05:57;22.00;99.90
15452;DHT22;7827;53.594;9.938;2023-09-12T12:08:26;21.90;99.90
15452;DHT22;7827;53.594;9.938;2023-09-12T12:10:59;22.00;99.90
15452;DHT22;7827;53.594;9.938;2023-09-12T12:13:28;22.00;99.90
15452;DHT22;7827;53.594;9.938;2023-09-12T12:15:57;22.00;99.90
15452;DHT22;7827;53.594;9.938;2023-09-12T12:18:25;22.00;99.90
15452;DHT22;7827;53.594;9.938;2023-09-12T12:20:54;21.90;99.90
15452;DHT22;7827;53.594;9.938;2023-09-12T12:23:24;21.90;99.90
15452;DHT22;7827;53.594;9.938;2023-09-12T12:25:53;21.80;99.90
15452;DHT22;7827;53.594;9.938;2023-09-12T12:28:22;21.80;99.90
15452;DHT22;7827;53.594;9.938;2023-09-12T12:30:52;21.90;99.90
15452;DHT22;7827;53.594;9.938;2023-09-12T12:33:22;21.90;99.90
15452;DHT22;7827;53.594;9.938;2023-09-12T12:36:10;21.90;99.90
15452;DHT22;7827;53.594;9.938;2023-09-12T12:38:40;21.90;99.90
15452;DHT22;7827;53.594;9.938;2023-09-12T12:41:30;22.00;99.90
15452;DHT22;7827;53.594;9.938;2023-09-12T12:44:15;22.10;99.90
15452;DHT22;7827;53.594;9.938;2023-09-12T12:46:51;22.20;99.90
15452;DHT22;7827;53.594;9.938;2023-09-12T12:49:21;22.30;99.90
15452;DHT22;7827;53.594;9.938;2023-09-12T12:51:50;22.40;99.90
15452;DHT22;7827;53.594;9.938;2023-09-12T12:54:22;22.50;99.90
15452;DHT22;7827;53.594;9.938;2023-09-12T12:56:51;22.60;94.20
15452;DHT22;7827;53.594;9.938;2023-09-12T12:59:20;22.70;82.10
15452;DHT22;7827;53.594;9.938;2023-09-12T13:01:50;22.70;81.60
15452;DHT22;7827;53.594;9.938;2023-09-12T13:04:20;22.60;73.00
15452;DHT22;7827;53.594;9.938;2023-09-12T13:06:49;22.70;69.90
15452;DHT22;7827;53.594;9.938;2023-09-12T13:09:17;22.60;75.40
15452;DHT22;7827;53.594;9.938;2023-09-12T13:11:47;22.70;70.30
15452;DHT22;7827;53.594;9.938;2023-09-12T13:14:16;22.60;86.40
15452;DHT22;7827;53.594;9.938;2023-09-12T13:16:46;22.60;84.40
15452;DHT22;7827;53.594;9.938;2023-09-12T13:19:14;22.70;92.00
15452;DHT22;7827;53.594;9.938;2023-09-12T13:21:42;22.80;90.20
15452;DHT22;7827;53.594;9.938;2023-09-12T13:24:11;22.80;53.80
15452;DHT22;7827;53.594;9.938;2023-09-12T13:26:40;22.80;61.10
15452;DHT22;7827;53.594;9.938;2023-09-12T13:29:09;22.90;68.40
15452;DHT22;7827;53.594;9.938;2023-09-12T13:31:38;22.80;29.90
15452;DHT22;7827;53.594;9.938;2023-09-12T13:34:06;22.90;56.50
15452;DHT22;7827;53.594;9.938;2023-09-12T13:36:38;22.80;39.50
15452;DHT22;7827;53.594;9.938;2023-09-12T13:39:07;22.80;50.90
15452;DHT22;7827;53.594;9.938;2023-09-12T13:41:35;23.00;47.30
15452;DHT22;7827;53.594;9.938;2023-09-12T13:44:04;23.00;54.40
15452;DHT22;7827;53.594;9.938;2023-09-12T13:46:34;23.10;19.80
15452;DHT22;7827;53.594;9.938;2023-09-12T13:49:03;23.00;18.50
15452;DHT22;7827;53.594;9.938;2023-09-12T13:51:31;23.10;29.30
15452;DHT22;7827;53.594;9.938;2023-09-12T13:53:59;23.10;30.10
15452;DHT22;7827;53.594;9.938;2023-09-12T13:56:28;23.20;25.80
15452;DHT22;7827;53.594;9.938;2023-09-12T13:58:56;23.20;15.50
15452;DHT22;7827;53.594;9.938;2023-09-12T14:01:24;23.10;24.60
15452;DHT22;7827;53.594;9.938;2023-09-12T14:04:03;23.10;22.20
15452;DHT22;7827;53.594;9.938;2023-09-12T14:06:33;23.10;25.60
15452;DHT22;7827;53.594;9.938;2023-09-12T14:09:03;23.10;24.70
15452;DHT22;7827;53.594;9.938;2023-09-12T14:11:32;23.00;24.90
15452;DHT22;7827;53.594;9.938;2023-09-12T14:14:03;23.00;17.20
15452;DHT22;7827;53.594;9.938;2023-09-12T14:16:35;23.00;27.30
15452;DHT22;7827;53.594;9.938;2023-09-12T14:19:05;23.00;25.60
15452;DHT22;7827;53.594;9.938;2023-09-12T14:21:35;23.00;22.00
15452;DHT22;7827;53.594;9.938;2023-09-12T14:24:05;23.10;3.60
15452;DHT22;7827;53.594;9.938;2023-09-12T14:26:34;23.00;1.00
15452;DHT22;7827;53.594;9.938;2023-09-12T14:29:04;22.90;19.90
15452;DHT22;7827;53.594;9.938;2023-09-12T14:31:34;23.00;22.70
15452;DHT22;7827;53.594;9.938;2023-09-12T14:34:05;23.00;7.60
15452;DHT22;7827;53.594;9.938;2023-09-12T14:36:35;23.00;11.00
15452;DHT22;7827;53.594;9.938;2023-09-12T14:39:04;23.10;5.90
15452;DHT22;7827;53.594;9.938;2023-09-12T14:41:33;23.10;9.20
15452;DHT22;7827;53.594;9.938;2023-09-12T14:44:01;23.20;2.50
15452;DHT22;7827;53.594;9.938;2023-09-12T14:46:30;23.40;1.00
15452;DHT22;7827;53.594;9.938;2023-09-12T14:48:58;23.30;1.00
15452;DHT22;7827;53.594;9.938;2023-09-12T14:51:30;23.20;1.00
15452;DHT22;7827;53.594;9.938;2023-09-12T14:54:01;23.20;1.00
15452;DHT22;7827;53.594;9.938;2023-09-12T14:56:30;23.30;1.00
15452;DHT22;7827;53.594;9.938;2023-09-12T14:58:59;23.70;1.00
15452;DHT22;7827;53.594;9.938;2023-09-12T15:01:28;23.70;1.00
15452;DHT22;7827;53.594;9.938;2023-09-12T15:03:57;23.60;1.00
15452;DHT22;7827;53.594;9.938;2023-09-12T15:06:26;23.50;1.00
15452;DHT22;7827;53.594;9.938;2023-09-12T15:08:58;23.50;1.00
15452;DHT22;7827;53.594;9.938;2023-09-12T15:11:26;23.50;1.00
15452;DHT22;7827;53.594;9.938;2023-09-12T15:13:54;23.40;1.00
15452;DHT22;7827;53.594;9.938;2023-09-12T15:16:23;23.30;1.00
15452;DHT22;7827;53.594;9.938;2023-09-12T15:18:53;23.30;1.00
15452;DHT22;7827;53.594;9.938;2023-09-12T15:21:21;23.40;1.00
15452;DHT22;7827;53.594;9.938;2023-09-12T15:23:49;23.40;1.00
15452;DHT22;7827;53.594;9.938;2023-09-12T15:26:19;23.50;1.00
15452;DHT22;7827;53.594;9.938;2023-09-12T15:28:47;23.50;1.00
15452;DHT22;7827;53.594;9.938;2023-09-12T15:31:16;23.50;1.00
15452;DHT22;7827;53.594;9.938;2023-09-12T15:33:45;23.40;1.00
15452;DHT22;7827;53.594;9.938;2023-09-12T15:36:14;23.40;1.00
15452;DHT22;7827;53.594;9.938;2023-09-12T15:38:43;23.40;1.00
15452;DHT22;7827;53.594;9.938;2023-09-12T15:41:11;23.40;1.00
15452;DHT22;7827;53.594;9.938;2023-09-12T15:43:41;23.50;1.00
15452;DHT22;7827;53.594;9.938;2023-09-12T15:46:10;23.50;1.00
15452;DHT22;7827;53.594;9.938;2023-09-12T15:48:55;23.60;1.00
15452;DHT22;7827;53.594;9.938;2023-09-12T15:51:24;23.50;1.00
15452;DHT22;7827;53.594;9.938;2023-09-12T15:53:53;23.50;1.00
15452;DHT22;7827;53.594;9.938;2023-09-12T15:56:21;23.70;1.00
15452;DHT22;7827;53.594;9.938;2023-09-12T15:58:51;23.70;1.00
15452;DHT22;7827;53.594;9.938;2023-09-12T16:01:22;23.70;1.00
15452;DHT22;7827;53.594;9.938;2023-09-12T16:03:50;23.70;1.00
15452;DHT22;7827;53.594;9.938;2023-09-12T16:06:21;23.70;1.00
15452;DHT22;7827;53.594;9.938;2023-09-12T16:08:50;23.70;1.00
15452;DHT22;7827;53.594;9.938;2023-09-12T16:11:18;23.60;1.00
15452;DHT22;7827;53.594;9.938;2023-09-12T16:13:47;23.70;1.00
15452;DHT22;7827;53.594;9.938;2023-09-12T16:16:20;23.60;1.00
15452;DHT22;7827;53.594;9.938;2023-09-12T16:18:48;23.50;1.00
15452;DHT22;7827;53.594;9.938;2023-09-12T16:21:17;23.30;1.00
15452;DHT22;7827;53.594;9.938;2023-09-12T16:23:45;23.20;1.00
15452;DHT22;7827;53.594;9.938;2023-09-12T16:26:13;23.20;1.00
15452;DHT22;7827;53.594;9.938;2023-09-12T16:28:42;23.30;1.00
15452;DHT22;7827;53.594;9.938;2023-09-12T16:31:10;23.20;1.00
15452;DHT22;7827;53.594;9.938;2023-09-12T16:33:40;23.20;1.00
15452;DHT22;7827;53.594;9.938;2023-09-12T16:36:09;23.10;1.00
15452;DHT22;7827;53.594;9.938;2023-09-12T16:38:38;23.00;1.00
15452;DHT22;7827;53.594;9.938;2023-09-12T16:41:06;23.00;1.00
15452;DHT22;7827;53.594;9.938;2023-09-12T16:43:34;22.90;1.00
15452;DHT22;7827;53.594;9.938;2023-09-12T16:46:03;22.90;1.00
15452;DHT22;7827;53.594;9.938;2023-09-12T16:48:31;22.90;1.00
15452;DHT22;7827;53.594;9.938;2023-09-12T16:51:03;22.90;1.00
15452;DHT22;7827;53.594;9.938;2023-09-12T16:53:31;22.90;1.00
15452;DHT22;7827;53.594;9.938;2023-09-12T16:56:00;22.90;1.00
15452;DHT22;7827;53.594;9.938;2023-09-12T16:58:28;22.90;1.00
15452;DHT22;7827;53.594;9.938;2023-09-12T17:00:57;22.80;1.00
15452;DHT22;7827;53.594;9.938;2023-09-12T17:03:26;22.80;7.70
15452;DHT22;7827;53.594;9.938;2023-09-12T17:05:55;22.80;2.90